Olivebridge, NY

7:20 AM EST on January 22, 2017 (GMT -0500)
Esopus Bidg | | Change Station
Active Advisory: Special Statement

Elev 459 ft 41.93 °N, 74.20 °W | Updated 15 seconds ago

Fog
Fog
37.4 °F
Feels Like 37 °F
N
0.0
Wind Variable Wind from East
Gusts 0.0 mph

Today
High -- | Low -- °F
--% Chance of Precip.
Yesterday
High -- | Low -- °F
Precip. -- in
Pressure 29.73 in
Visibility 0.8 miles
Clouds
Windchill 37 °F
Dew Point 37 °F
Humidity 98%
Rainfall 0.00 in
Snow Depth Not available.
7:17 AM 4:59 PM
Waning Crescent, 27% visible
METAR KPOU 221153Z 00000KT 3/4SM BR VV003 04/04 A2973 RMK AO2 SLP067 T00390039 10056 20033 53002
Pressure 29.73 in
Visibility 0.8 miles
Clouds
Windchill 37 °F
Dew Point 37 °F
Humidity 98%
Rainfall 0.00 in
Snow Depth Not available.
7:17 AM 4:59 PM
Waning Crescent, 27% visible
METAR KPOU 221153Z 00000KT 3/4SM BR VV003 04/04 A2973 RMK AO2 SLP067 T00390039 10056 20033 53002

Get Your Daily Forecast Email!

Thanks for signing up!

Be on the lookout for a verification email in your inbox.

You'll start receiving the daily forecast at 8 AM.

×

10-Day Weather Forecast

Almanac

Astronomy

Jan. 22, 2017 Rise Set
Actual Time
Civil Twilight
Nautical Twilight
Astronomical Twilight
Moon
Length of Visible Light
Length of Day
Tomorrow will be .
, % of the Moon is Illuminated

Today's Extremes

State Highs State Lows

Community

WunderPhotos

Upload Photos

1,962,540 photos uploaded!

WunderBlog® & News

Nearby

Air Quality

  Air Quality AQ Index Pollutant
Not available.

Snow Depth

Station Depth Elevation

Earthquake Activity

City Distance Mag. Time & Date
Minimum magnitude displayed is 2.5.

Coastal Water Temperatures

Place Temperature

Stations

Nearby Weather Stations

Station Location Temp. Windchill Dew Point Humidity Wind Precip. Elev Updated Type
                   

Watches & Warnings

Special Statement
Issued: 5:55 AM EST Jan. 22, 2017 – National Weather Service

... Patchy dense fog continues this morning...

Patchy dense fog will persist for at least a few hours, before
dissipating by mid to late morning. The visibility could be
reduced to less than a half mile at times. If traveling, be aware
for quickly changing visibility, reduce your speed, and use low
beam headlights.


555 am EST sun Jan 22 2017

... Patchy dense fog continues this morning...

Patchy dense fog will persist for at least a few hours, before
dissipating by mid to late morning. The visibility could be
reduced to less than a half mile at times. If traveling, be aware
for quickly changing visibility, reduce your speed, and use low
beam headlights.



555 am EST sun Jan 22 2017

... Patchy dense fog continues this morning...

Patchy dense fog will persist for at least a few hours, before
dissipating by mid to late morning. The visibility could be
reduced to less than a half mile at times. If traveling, be aware
for quickly changing visibility, reduce your speed, and use low
beam headlights.